createdAt,value
2019-05-22T00:01:50.966Z,11.79
2019-05-22T00:04:25.632Z,11.92
2019-05-22T00:07:00.779Z,11.97
2019-05-22T00:09:44.690Z,11.96
2019-05-22T00:12:20.380Z,11.93
2019-05-22T00:14:52.789Z,11.94
2019-05-22T00:17:32.192Z,11.91
2019-05-22T00:20:06.169Z,11.64
2019-05-22T00:22:39.199Z,11.81
2019-05-22T00:25:13.869Z,11.73
2019-05-22T00:27:47.019Z,11.89
2019-05-22T00:30:20.449Z,11.77
2019-05-22T00:32:51.674Z,11.64
2019-05-22T00:35:24.651Z,11.78
2019-05-22T00:37:57.161Z,11.90
2019-05-22T00:40:31.617Z,12.05
2019-05-22T00:43:10.838Z,11.89
2019-05-22T00:45:37.216Z,11.80
2019-05-22T00:48:08.968Z,11.73
2019-05-22T00:50:47.211Z,11.97
2019-05-22T00:53:29.621Z,12.02
2019-05-22T00:56:19.546Z,11.91
2019-05-22T00:58:58.357Z,11.97
2019-05-22T01:01:44.835Z,11.79
2019-05-22T01:04:20.362Z,11.80
2019-05-22T01:06:52.579Z,11.82
2019-05-22T01:09:41.925Z,12.05
2019-05-22T01:12:21.805Z,11.99
2019-05-22T01:14:54.525Z,11.86
2019-05-22T01:17:27.617Z,11.73
2019-05-22T01:20:01.048Z,11.80
2019-05-22T01:22:36.486Z,11.69
2019-05-22T01:25:11.813Z,11.71
2019-05-22T01:27:46.012Z,11.80
2019-05-22T01:30:26.516Z,11.94
2019-05-22T01:32:59.667Z,11.86
2019-05-22T01:35:36.667Z,11.81
2019-05-22T01:38:11.914Z,11.89
2019-05-22T01:40:53.531Z,11.84
2019-05-22T01:43:27.357Z,11.77
2019-05-22T01:46:01.463Z,11.72
2019-05-22T01:48:38.425Z,11.82
2019-05-22T01:51:11.850Z,11.79
2019-05-22T01:53:44.112Z,11.81
2019-05-22T01:56:17.006Z,11.90
2019-05-22T01:58:49.831Z,11.68
2019-05-22T02:01:24.411Z,11.89
2019-05-22T02:03:56.936Z,11.95
2019-05-22T02:06:28.315Z,11.99
2019-05-22T02:09:18.031Z,12.07
2019-05-22T02:11:54.275Z,11.87
2019-05-22T02:14:25.420Z,11.81
2019-05-22T02:16:58.135Z,11.91
2019-05-22T02:19:30.236Z,11.90
2019-05-22T02:22:01.765Z,11.96
2019-05-22T02:24:34.007Z,11.87
2019-05-22T02:27:06.246Z,11.72
2019-05-22T02:29:38.056Z,11.62
2019-05-22T02:32:11.693Z,11.95
2019-05-22T02:34:45.052Z,11.63
2019-05-22T02:37:17.119Z,11.72
2019-05-22T02:39:49.218Z,11.86
2019-05-22T02:42:28.681Z,11.94
2019-05-22T02:45:00.704Z,11.91
2019-05-22T02:47:32.101Z,11.65
2019-05-22T02:50:05.007Z,11.84
2019-05-22T02:52:36.592Z,11.60
2019-05-22T02:55:08.717Z,11.70
2019-05-22T02:57:40.714Z,11.83
2019-05-22T03:00:15.042Z,11.78
2019-05-22T03:02:53.660Z,11.50
2019-05-22T03:05:25.273Z,11.54
2019-05-22T03:07:57.528Z,11.83
2019-05-22T03:10:29.513Z,11.79
2019-05-22T03:13:01.740Z,11.86
2019-05-22T03:15:32.895Z,11.77
2019-05-22T03:18:09.260Z,11.69
2019-05-22T03:20:42.144Z,11.72
2019-05-22T03:23:38.994Z,11.81
2019-05-22T03:26:13.361Z,11.76
2019-05-22T03:28:46.051Z,11.85
2019-05-22T03:31:18.611Z,11.73
2019-05-22T03:33:50.722Z,12.00
2019-05-22T03:36:22.736Z,11.84
2019-05-22T03:38:54.080Z,11.80
2019-05-22T03:41:25.876Z,11.68
2019-05-22T03:43:58.516Z,11.80
2019-05-22T03:46:39.025Z,11.65
2019-05-22T03:49:29.186Z,11.82
2019-05-22T03:51:49.302Z,11.89
2019-05-22T03:54:21.871Z,11.80
2019-05-22T03:56:54.661Z,11.77
2019-05-22T03:59:25.950Z,11.71
2019-05-22T04:01:57.412Z,11.99
2019-05-22T04:04:40.483Z,11.76
2019-05-22T04:07:19.514Z,11.92
2019-05-22T04:09:53.482Z,11.87
2019-05-22T04:12:24.898Z,12.03
2019-05-22T04:14:57.042Z,12.15
2019-05-22T04:17:30.083Z,11.83
2019-05-22T04:20:01.600Z,12.01
2019-05-22T04:22:33.480Z,12.03
2019-05-22T04:25:05.200Z,11.93
2019-05-22T04:27:36.365Z,12.07
2019-05-22T04:30:10.584Z,11.85
2019-05-22T04:32:44.371Z,11.93
2019-05-22T04:35:19.828Z,11.92
2019-05-22T04:37:51.420Z,11.72
2019-05-22T04:40:54.362Z,11.60
2019-05-22T04:43:34.169Z,11.69
2019-05-22T04:46:09.744Z,11.80
2019-05-22T04:48:45.573Z,11.60
2019-05-22T04:51:31.078Z,11.79
2019-05-22T04:54:02.446Z,11.70
2019-05-22T04:56:33.711Z,11.79
2019-05-22T04:59:06.102Z,11.90
2019-05-22T05:01:38.743Z,11.84
2019-05-22T05:04:10.530Z,11.99
2019-05-22T05:06:41.915Z,11.96
2019-05-22T05:09:14.965Z,11.86
2019-05-22T05:11:46.392Z,11.92
2019-05-22T05:14:17.575Z,11.85
2019-05-22T05:16:48.772Z,11.84
2019-05-22T05:19:20.561Z,12.00
2019-05-22T05:21:52.350Z,11.94
2019-05-22T05:24:24.008Z,12.03
2019-05-22T05:26:55.959Z,12.07
2019-05-22T05:29:30.291Z,12.22
2019-05-22T05:32:02.923Z,11.97
2019-05-22T05:34:45.508Z,12.00
2019-05-22T05:37:20.318Z,12.07
2019-05-22T05:40:33.818Z,11.87
2019-05-22T05:43:07.699Z,12.09
2019-05-22T05:45:42.406Z,11.90
2019-05-22T05:48:44.103Z,11.96
2019-05-22T05:51:39.197Z,11.94
2019-05-22T05:54:15.348Z,12.05
2019-05-22T05:56:50.682Z,11.99
2019-05-22T05:59:28.601Z,11.81
2019-05-22T06:02:00.646Z,11.84
2019-05-22T06:04:38.947Z,11.87
2019-05-22T06:07:24.200Z,11.75
2019-05-22T06:10:59.352Z,11.59
2019-05-22T06:13:30.629Z,11.51
2019-05-22T06:17:01.468Z,11.71
2019-05-22T06:19:32.569Z,11.82
2019-05-22T06:22:04.232Z,11.80
2019-05-22T06:24:59.854Z,11.90
2019-05-22T06:27:54.826Z,11.84
2019-05-22T06:30:44.452Z,11.86
2019-05-22T06:33:36.059Z,11.86
2019-05-22T06:36:14.420Z,11.81
2019-05-22T06:38:57.390Z,11.86
2019-05-22T06:41:32.902Z,11.86
2019-05-22T06:44:39.835Z,12.14
2019-05-22T06:47:24.204Z,11.93
2019-05-22T06:49:57.277Z,12.04
2019-05-22T06:52:29.307Z,11.99
2019-05-22T06:55:00.723Z,11.81
2019-05-22T06:57:35.271Z,12.14
2019-05-22T07:00:20.243Z,12.03
2019-05-22T07:02:51.741Z,12.28
2019-05-22T07:05:23.994Z,11.98
2019-05-22T07:07:56.937Z,12.00
2019-05-22T07:10:28.078Z,11.99
2019-05-22T07:13:00.677Z,12.13
2019-05-22T07:16:02.014Z,12.18
2019-05-22T07:18:33.188Z,12.09
2019-05-22T07:21:04.871Z,12.02
2019-05-22T07:23:37.768Z,11.94
2019-05-22T07:26:09.348Z,12.05
2019-05-22T07:28:41.339Z,12.24
2019-05-22T07:31:13.180Z,12.44
2019-05-22T07:33:45.672Z,12.54
2019-05-22T07:36:17.801Z,12.37
2019-05-22T07:38:49.602Z,12.37
2019-05-22T07:41:21.030Z,12.03
2019-05-22T07:43:52.546Z,11.95
2019-05-22T07:46:24.932Z,12.17
2019-05-22T07:48:56.883Z,12.42
2019-05-22T07:51:28.301Z,12.52
2019-05-22T07:53:59.747Z,12.45
2019-05-22T07:56:31.956Z,12.73
2019-05-22T07:59:04.185Z,12.44
2019-05-22T08:01:35.917Z,12.50
2019-05-22T08:04:07.382Z,12.58
2019-05-22T08:06:39.215Z,12.74
2019-05-22T08:09:12.137Z,12.79
2019-05-22T08:11:44.048Z,12.61
2019-05-22T08:14:15.293Z,12.85
2019-05-22T08:16:47.420Z,12.88
2019-05-22T08:19:18.948Z,12.68
2019-05-22T08:22:04.678Z,12.92
2019-05-22T08:24:23.855Z,13.09
2019-05-22T08:26:55.550Z,13.30
2019-05-22T08:29:27.881Z,13.35
2019-05-22T08:32:00.475Z,13.39
2019-05-22T08:34:32.651Z,13.49
2019-05-22T08:37:08.981Z,13.44
2019-05-22T08:39:40.981Z,13.35
2019-05-22T08:42:15.573Z,13.35
2019-05-22T08:44:47.166Z,13.55
2019-05-22T08:47:19.253Z,13.56
2019-05-22T08:49:51.539Z,13.82
2019-05-22T08:52:24.449Z,13.62
2019-05-22T08:54:56.837Z,13.92
2019-05-22T08:57:28.342Z,13.98
2019-05-22T08:59:59.803Z,13.74
2019-05-22T09:02:31.610Z,13.88
2019-05-22T09:05:03.327Z,13.97
2019-05-22T09:07:35.777Z,13.87
2019-05-22T09:10:07.702Z,13.74
2019-05-22T09:12:39.027Z,13.66
2019-05-22T09:15:12.047Z,13.57
2019-05-22T09:17:43.500Z,13.25
2019-05-22T09:20:15.497Z,13.31
2019-05-22T09:22:47.371Z,13.65
2019-05-22T09:25:18.799Z,13.91
2019-05-22T09:27:50.632Z,14.00
2019-05-22T09:30:22.573Z,13.81
2019-05-22T09:32:54.349Z,13.53
2019-05-22T09:35:26.310Z,13.44
2019-05-22T09:37:57.685Z,13.31
2019-05-22T09:40:29.339Z,13.01
2019-05-22T09:43:00.530Z,13.13
2019-05-22T09:45:31.837Z,13.19
2019-05-22T09:48:03.315Z,13.13
2019-05-22T09:50:34.973Z,13.31
2019-05-22T09:53:07.727Z,13.09
2019-05-22T09:55:39.309Z,13.19
2019-05-22T09:58:10.622Z,13.27
2019-05-22T10:00:41.853Z,13.50
2019-05-22T10:03:13.173Z,13.29
2019-05-22T10:05:44.471Z,13.31
2019-05-22T10:08:15.845Z,13.38
2019-05-22T10:10:47.142Z,13.07
2019-05-22T10:13:18.526Z,12.95
2019-05-22T10:15:50.085Z,13.32
2019-05-22T10:18:21.455Z,13.33
2019-05-22T10:20:52.761Z,13.69
2019-05-22T10:23:24.695Z,13.44
2019-05-22T10:25:55.828Z,13.84
2019-05-22T10:28:28.245Z,14.31
2019-05-22T10:31:00.164Z,14.41
2019-05-22T10:33:31.822Z,14.54
2019-05-22T10:36:02.939Z,14.06
2019-05-22T10:38:34.464Z,13.92
2019-05-22T10:41:06.413Z,13.92
2019-05-22T10:43:38.010Z,13.92
2019-05-22T10:46:10.059Z,13.67
2019-05-22T10:48:42.691Z,13.57
2019-05-22T10:51:13.976Z,13.75
2019-05-22T10:53:45.764Z,13.58
2019-05-22T10:56:16.979Z,13.71
2019-05-22T10:58:48.240Z,13.64
2019-05-22T11:01:19.534Z,13.55
2019-05-22T11:03:51.598Z,13.41
2019-05-22T11:06:23.583Z,13.65
2019-05-22T11:08:54.833Z,13.79
2019-05-22T11:11:26.788Z,13.68
2019-05-22T11:14:01.723Z,13.85
2019-05-22T11:16:32.444Z,13.86
2019-05-22T11:19:04.737Z,13.86
2019-05-22T11:21:36.016Z,14.02
2019-05-22T11:24:07.960Z,14.04
2019-05-22T11:26:39.161Z,13.66
2019-05-22T11:29:10.637Z,13.54
2019-05-22T11:31:42.562Z,13.63
2019-05-22T11:34:14.764Z,13.38
2019-05-22T11:36:46.001Z,13.59
2019-05-22T11:39:29.666Z,13.44
2019-05-22T11:41:52.835Z,13.41
2019-05-22T11:44:24.321Z,13.38
2019-05-22T11:46:55.428Z,13.42
2019-05-22T11:49:27.064Z,13.67
2019-05-22T11:51:58.407Z,13.55
2019-05-22T11:54:30.703Z,13.52
2019-05-22T11:57:02.152Z,13.74
2019-05-22T11:59:33.434Z,13.82
2019-05-22T12:02:05.517Z,13.90
2019-05-22T12:04:47.399Z,13.91
2019-05-22T12:07:11.078Z,14.01
2019-05-22T12:09:42.304Z,14.24
2019-05-22T12:12:16.328Z,13.81
2019-05-22T12:14:47.980Z,13.74
2019-05-22T12:17:36.748Z,13.92
2019-05-22T12:19:53.147Z,13.92
2019-05-22T12:22:24.506Z,13.74
2019-05-22T12:24:55.883Z,13.90
2019-05-22T12:27:27.060Z,13.67
2019-05-22T12:29:58.246Z,13.91
2019-05-22T12:32:32.144Z,13.77
2019-05-22T12:35:03.713Z,13.94
2019-05-22T12:37:36.309Z,13.95
2019-05-22T12:40:08.571Z,14.16
2019-05-22T12:42:40.346Z,14.09
2019-05-22T12:45:14.239Z,14.20
2019-05-22T12:47:45.442Z,13.91
2019-05-22T12:50:20.452Z,14.09
2019-05-22T12:52:52.158Z,14.63
2019-05-22T12:55:23.300Z,14.65
2019-05-22T12:57:54.828Z,14.60
2019-05-22T13:00:28.625Z,14.31
2019-05-22T13:03:01.893Z,14.35
2019-05-22T13:05:35.633Z,14.30
2019-05-22T13:08:07.950Z,14.08
2019-05-22T13:10:40.206Z,14.10
2019-05-22T13:13:11.953Z,14.13
2019-05-22T13:15:44.531Z,14.28
2019-05-22T13:18:18.847Z,14.55
2019-05-22T13:20:52.918Z,14.37
2019-05-22T13:23:29.077Z,14.23
2019-05-22T13:26:00.385Z,14.37
2019-05-22T13:28:31.960Z,14.43
2019-05-22T13:31:03.507Z,14.64
2019-05-22T13:33:38.527Z,14.38
2019-05-22T13:36:12.956Z,14.12
2019-05-22T13:38:44.553Z,14.24
2019-05-22T13:41:16.275Z,14.70
2019-05-22T13:43:48.019Z,14.56
2019-05-22T13:46:20.020Z,14.79
2019-05-22T13:48:51.301Z,14.86
2019-05-22T13:51:23.160Z,14.70
2019-05-22T13:53:55.488Z,14.82
2019-05-22T13:56:26.698Z,14.67
2019-05-22T13:58:58.927Z,14.55
2019-05-22T14:01:31.319Z,14.79
2019-05-22T14:04:03.121Z,15.04
2019-05-22T14:06:34.348Z,14.91
2019-05-22T14:09:11.274Z,14.70
2019-05-22T14:11:44.324Z,14.71
2019-05-22T14:14:15.616Z,14.20
2019-05-22T14:16:49.013Z,14.35
2019-05-22T14:19:21.066Z,14.06
2019-05-22T14:21:52.549Z,13.96
2019-05-22T14:24:23.994Z,13.98
2019-05-22T14:26:55.178Z,14.24
2019-05-22T14:29:26.620Z,14.41
2019-05-22T14:31:58.100Z,14.66
2019-05-22T14:34:29.965Z,14.75
2019-05-22T14:37:01.517Z,14.56
2019-05-22T14:39:33.299Z,14.47
2019-05-22T14:42:04.755Z,14.60
2019-05-22T14:44:36.029Z,14.60
2019-05-22T14:47:14.495Z,14.47
2019-05-22T14:49:40.343Z,14.68
2019-05-22T14:52:11.897Z,14.47
2019-05-22T14:54:43.166Z,14.58
2019-05-22T14:57:15.177Z,14.64
2019-05-22T14:59:47.505Z,14.35
2019-05-22T15:02:18.884Z,14.49
2019-05-22T15:04:50.596Z,14.51
2019-05-22T15:07:21.775Z,14.71
2019-05-22T15:09:53.049Z,14.44
2019-05-22T15:12:24.312Z,14.67
2019-05-22T15:14:55.945Z,14.50
2019-05-22T15:17:32.431Z,14.43
2019-05-22T15:20:00.958Z,14.54
2019-05-22T15:22:33.449Z,14.71
2019-05-22T15:25:05.718Z,14.53
2019-05-22T15:27:38.354Z,14.64
2019-05-22T15:30:11.356Z,14.58
2019-05-22T15:32:42.728Z,14.44
2019-05-22T15:35:14.435Z,14.43
2019-05-22T15:37:46.543Z,14.46
2019-05-22T15:40:18.538Z,14.57
2019-05-22T15:42:50.713Z,14.44
2019-05-22T15:45:24.468Z,14.42
2019-05-22T15:47:58.513Z,14.52
2019-05-22T15:50:33.912Z,14.33
2019-05-22T15:53:13.304Z,14.55
2019-05-22T15:55:44.179Z,14.57
2019-05-22T15:58:18.052Z,14.24
2019-05-22T16:00:50.753Z,14.24
2019-05-22T16:03:26.748Z,14.30
2019-05-22T16:05:59.810Z,14.40
2019-05-22T16:08:31.571Z,14.45
2019-05-22T16:11:06.691Z,14.36
2019-05-22T16:13:38.754Z,14.33
2019-05-22T16:16:13.078Z,14.64
2019-05-22T16:18:48.636Z,14.44
2019-05-22T16:21:20.824Z,14.31
2019-05-22T16:23:53.046Z,14.08
2019-05-22T16:26:24.687Z,13.99
2019-05-22T16:28:56.979Z,14.12
2019-05-22T16:31:28.843Z,14.11
2019-05-22T16:34:00.706Z,14.10
2019-05-22T16:36:33.291Z,14.03
2019-05-22T16:39:06.626Z,13.89
2019-05-22T16:41:38.634Z,13.82
2019-05-22T16:44:10.384Z,13.76
2019-05-22T16:46:42.820Z,13.70
2019-05-22T16:49:15.082Z,13.72
2019-05-22T16:51:47.336Z,13.83
2019-05-22T16:54:21.130Z,13.71
2019-05-22T16:56:53.850Z,13.84
2019-05-22T16:59:24.937Z,14.04
2019-05-22T17:02:00.307Z,14.16
2019-05-22T17:04:31.120Z,14.17
2019-05-22T17:07:05.236Z,14.24
2019-05-22T17:09:36.620Z,14.21
2019-05-22T17:12:09.695Z,14.18
2019-05-22T17:14:41.927Z,14.46
2019-05-22T17:17:15.851Z,14.25
2019-05-22T17:19:47.815Z,13.94
2019-05-22T17:22:20.247Z,14.34
2019-05-22T17:24:51.861Z,14.36
2019-05-22T17:27:23.603Z,14.24
2019-05-22T17:29:55.559Z,14.40
2019-05-22T17:32:28.513Z,14.30
2019-05-22T17:35:00.468Z,14.19
2019-05-22T17:37:35.114Z,14.15
2019-05-22T17:40:08.739Z,14.21
2019-05-22T17:42:42.583Z,14.04
2019-05-22T17:45:17.061Z,13.88
2019-05-22T17:47:48.638Z,13.73
2019-05-22T17:50:26.890Z,13.92
2019-05-22T17:52:56.852Z,14.18
2019-05-22T17:55:30.060Z,14.01
2019-05-22T17:58:01.271Z,14.13
2019-05-22T18:00:39.100Z,13.88
2019-05-22T18:03:10.499Z,13.78
2019-05-22T18:05:41.976Z,14.03
2019-05-22T18:08:14.039Z,13.91
2019-05-22T18:10:49.595Z,13.95
2019-05-22T18:13:21.212Z,14.34
2019-05-22T18:15:52.760Z,14.14
2019-05-22T18:18:24.193Z,14.42
2019-05-22T18:20:55.376Z,14.33
2019-05-22T18:23:26.648Z,14.33
2019-05-22T18:25:57.878Z,14.36
2019-05-22T18:28:29.283Z,14.23
2019-05-22T18:31:00.869Z,14.35
2019-05-22T18:33:32.125Z,14.15
2019-05-22T18:36:03.384Z,14.18
2019-05-22T18:38:34.527Z,14.26
2019-05-22T18:41:05.760Z,14.32
2019-05-22T18:43:37.645Z,14.37
2019-05-22T18:46:09.623Z,14.40
2019-05-22T18:48:40.800Z,14.27
2019-05-22T18:51:12.221Z,14.33
2019-05-22T18:53:43.850Z,14.33
2019-05-22T18:56:15.165Z,14.18
2019-05-22T18:58:47.127Z,14.12
2019-05-22T19:01:18.884Z,14.30
2019-05-22T19:03:50.015Z,14.35
2019-05-22T19:06:30.314Z,14.30
2019-05-22T19:08:54.821Z,14.34
2019-05-22T19:11:26.155Z,14.24
2019-05-22T19:13:57.373Z,14.24
2019-05-22T19:16:28.763Z,14.37
2019-05-22T19:19:00.299Z,14.30
2019-05-22T19:21:31.507Z,14.31
2019-05-22T19:24:02.788Z,14.28
2019-05-22T19:26:33.896Z,14.34
2019-05-22T19:29:05.581Z,14.39
2019-05-22T19:31:36.907Z,14.26
2019-05-22T19:34:08.565Z,14.29
2019-05-22T19:36:39.800Z,14.16
2019-05-22T19:39:11.433Z,14.15
2019-05-22T19:41:42.743Z,14.22
2019-05-22T19:44:14.317Z,14.15
2019-05-22T19:46:46.219Z,14.20
2019-05-22T19:49:17.952Z,14.17
2019-05-22T19:51:51.126Z,14.11
2019-05-22T19:54:22.212Z,13.92
2019-05-22T19:56:53.431Z,13.98
2019-05-22T20:02:10.562Z,14.07
2019-05-22T20:04:42.378Z,13.83
2019-05-22T20:07:14.443Z,13.87
2019-05-22T20:09:46.349Z,13.75
2019-05-22T20:12:19.058Z,13.79
2019-05-22T20:14:50.642Z,13.66
2019-05-22T20:17:21.695Z,13.64
2019-05-22T20:19:53.655Z,13.56
2019-05-22T20:22:26.052Z,13.31
2019-05-22T20:24:57.321Z,13.46
2019-05-22T20:27:28.499Z,13.27
2019-05-22T20:29:59.644Z,13.23
2019-05-22T20:32:30.932Z,13.40
2019-05-22T20:35:02.347Z,13.25
2019-05-22T20:37:33.648Z,13.27
2019-05-22T20:40:06.524Z,12.98
2019-05-22T20:42:38.076Z,13.06
2019-05-22T20:45:10.785Z,12.99
2019-05-22T20:47:43.885Z,12.89
2019-05-22T20:50:15.795Z,12.98
2019-05-22T20:52:49.441Z,12.84
2019-05-22T20:55:21.556Z,12.71
2019-05-22T20:57:53.089Z,12.83
2019-05-22T21:00:28.292Z,12.75
2019-05-22T21:03:08.275Z,12.54
2019-05-22T21:05:41.852Z,12.51
2019-05-22T21:08:16.067Z,12.57
2019-05-22T21:10:50.239Z,12.51
2019-05-22T21:13:21.616Z,12.40
2019-05-22T21:15:55.262Z,12.40
2019-05-22T21:18:33.786Z,12.45
2019-05-22T21:21:07.150Z,12.44
2019-05-22T21:23:40.453Z,12.51
2019-05-22T21:26:12.781Z,12.59
2019-05-22T21:28:45.089Z,12.55
2019-05-22T21:31:17.159Z,12.41
2019-05-22T21:33:48.349Z,12.37
2019-05-22T21:36:20.557Z,12.39
2019-05-22T21:38:52.370Z,12.35
2019-05-22T21:41:24.305Z,12.49
2019-05-22T21:43:56.082Z,12.49
2019-05-22T21:46:27.637Z,12.29
2019-05-22T21:48:59.368Z,12.18
2019-05-22T21:51:31.757Z,12.13
2019-05-22T21:54:04.934Z,12.21
2019-05-22T21:56:37.017Z,12.20
2019-05-22T21:59:08.841Z,12.16
2019-05-22T22:01:58.919Z,12.21
2019-05-22T22:04:34.025Z,12.24
2019-05-22T22:07:05.906Z,12.26
2019-05-22T22:09:38.254Z,12.19
2019-05-22T22:12:10.799Z,12.27
2019-05-22T22:14:43.154Z,12.36
2019-05-22T22:17:16.738Z,12.22
2019-05-22T22:19:49.272Z,12.14
2019-05-22T22:22:28.221Z,12.28
2019-05-22T22:24:59.722Z,12.08
2019-05-22T22:27:32.185Z,12.17
2019-05-22T22:30:05.656Z,12.17
2019-05-22T22:32:38.086Z,12.09
2019-05-22T22:35:12.467Z,12.04
2019-05-22T22:37:43.949Z,12.03
2019-05-22T22:40:17.929Z,11.60
2019-05-22T22:42:50.808Z,11.63
2019-05-22T22:45:30.483Z,11.89
2019-05-22T22:48:01.955Z,11.74
2019-05-22T22:50:33.244Z,11.84
2019-05-22T22:53:04.799Z,11.69
2019-05-22T22:55:37.978Z,11.84
2019-05-22T22:58:17.201Z,11.85
2019-05-22T23:00:45.794Z,11.78
2019-05-22T23:03:21.970Z,11.72
2019-05-22T23:05:53.831Z,11.81
2019-05-22T23:08:30.641Z,11.88
2019-05-22T23:11:03.007Z,11.86
2019-05-22T23:13:35.775Z,11.89
2019-05-22T23:16:07.930Z,11.65
2019-05-22T23:19:44.632Z,11.89
2019-05-22T23:22:17.812Z,11.80
2019-05-22T23:24:51.964Z,11.65
2019-05-22T23:27:25.448Z,11.85
2019-05-22T23:29:57.707Z,11.74
2019-05-22T23:32:29.495Z,11.83
2019-05-22T23:35:02.168Z,11.72
2019-05-22T23:37:34.270Z,11.68
2019-05-22T23:40:06.919Z,11.41
2019-05-22T23:42:41.720Z,11.56
2019-05-22T23:45:17.120Z,11.71
2019-05-22T23:48:06.991Z,11.42
2019-05-22T23:50:40.350Z,11.49
2019-05-22T23:53:13.504Z,11.53
2019-05-22T23:55:45.464Z,11.47
2019-05-22T23:58:17.807Z,11.58
